Time,TemperatureF,DewpointF,PressureIn,WindDirection,WindDirectionDegrees,WindSpeedMPH,WindSpeedGustMPH,Humidity,HourlyPrecipIn,Conditions,Clouds,dailyrainin,SoftwareType,DateUTC
2013-10-01 00:04:00,54.1,36.4,29.79,NE,56,0.0,0.0,51,0.00,,,0.00,Wunderground v.1.15,2013-10-01 07:04:00,
2013-10-01 00:09:00,53.2,36.0,29.79,NE,53,0.0,0.0,52,0.00,,,0.00,Wunderground v.1.15,2013-10-01 07:09:00,
2013-10-01 00:16:00,53.2,37.9,29.79,WSW,258,0.0,0.0,56,0.00,,,0.00,Wunderground v.1.15,2013-10-01 07:16:00,
2013-10-01 00:22:00,54.2,37.9,29.79,WSW,257,0.0,0.0,54,0.00,,,0.00,Wunderground v.1.15,2013-10-01 07:22:00,
2013-10-01 00:27:00,54.2,37.9,29.79,WSW,258,0.0,0.0,54,0.00,,,0.00,Wunderground v.1.15,2013-10-01 07:27:00,
2013-10-01 00:32:00,54.7,37.9,29.79,WSW,258,0.0,0.0,53,0.00,,,0.00,Wunderground v.1.15,2013-10-01 07:32:00,
2013-10-01 00:38:00,54.9,37.6,29.79,WSW,258,0.0,0.0,52,0.00,,,0.00,Wunderground v.1.15,2013-10-01 07:38:00,
2013-10-01 00:43:00,54.7,37.4,29.79,WSW,257,0.0,0.0,52,0.00,,,0.00,Wunderground v.1.15,2013-10-01 07:43:00,
2013-10-01 00:48:00,55.0,37.7,29.79,WSW,257,0.0,0.0,52,0.00,,,0.00,Wunderground v.1.15,2013-10-01 07:48:00,
2013-10-01 00:54:00,53.9,36.7,29.79,WSW,258,0.0,0.0,52,0.00,,,0.00,Wunderground v.1.15,2013-10-01 07:54:00,
2013-10-01 00:59:00,52.8,37.1,29.79,West,264,0.0,0.0,55,0.00,,,0.00,Wunderground v.1.15,2013-10-01 07:59:00,
2013-10-01 01:04:00,51.9,35.8,29.79,West,264,0.0,0.0,54,0.00,,,0.00,Wunderground v.1.15,2013-10-01 08:04:00,
2013-10-01 01:09:00,51.3,36.6,29.79,West,265,0.0,0.0,57,0.00,,,0.00,Wunderground v.1.15,2013-10-01 08:09:00,
2013-10-01 01:15:00,51.4,36.7,29.79,West,265,0.0,0.0,57,0.00,,,0.00,Wunderground v.1.15,2013-10-01 08:15:00,
2013-10-01 01:20:00,51.1,35.9,29.80,West,264,0.0,0.0,56,0.00,,,0.00,Wunderground v.1.15,2013-10-01 08:20:00,
2013-10-01 01:26:00,50.6,36.8,29.80,SW,226,0.0,2.0,59,0.00,,,0.00,Wunderground v.1.15,2013-10-01 08:26:00,
2013-10-01 01:31:00,50.4,36.6,29.80,SW,226,1.0,1.0,59,0.00,,,0.00,Wunderground v.1.15,2013-10-01 08:31:00,
2013-10-01 01:36:00,49.6,36.3,29.80,SW,229,1.0,1.0,60,0.00,,,0.00,Wunderground v.1.15,2013-10-01 08:36:00,
2013-10-01 01:42:00,49.9,37.0,29.80,WSW,245,0.0,0.0,61,0.00,,,0.00,Wunderground v.1.15,2013-10-01 08:42:00,
2013-10-01 01:48:00,50.4,37.0,29.80,WSW,245,0.0,0.0,60,0.00,,,0.00,Wunderground v.1.15,2013-10-01 08:48:00,
2013-10-01 01:53:00,50.1,36.7,29.80,SW,234,0.0,0.0,60,0.00,,,0.00,Wunderground v.1.15,2013-10-01 08:53:00,
2013-10-01 01:59:00,50.1,36.3,29.80,SW,233,0.0,0.0,59,0.00,,,0.00,Wunderground v.1.15,2013-10-01 08:59:00,
2013-10-01 02:04:00,49.7,36.8,29.80,SW,234,0.0,0.0,61,0.00,,,0.00,Wunderground v.1.15,2013-10-01 09:04:00,
2013-10-01 02:10:00,49.9,36.6,29.80,SW,234,0.0,0.0,60,0.00,,,0.00,Wunderground v.1.15,2013-10-01 09:10:00,
2013-10-01 02:16:00,50.0,36.7,29.80,SW,233,0.0,0.0,60,0.00,,,0.00,Wunderground v.1.15,2013-10-01 09:16:00,
2013-10-01 02:22:00,49.7,35.9,29.80,WSW,238,0.0,0.0,59,0.00,,,0.00,Wunderground v.1.15,2013-10-01 09:22:00,
2013-10-01 02:28:00,49.1,35.8,29.80,SW,236,0.0,0.0,60,0.00,,,0.00,Wunderground v.1.15,2013-10-01 09:28:00,
2013-10-01 02:34:00,48.0,35.2,29.80,WSW,246,0.0,1.0,61,0.00,,,0.00,Wunderground v.1.15,2013-10-01 09:34:00,
2013-10-01 02:40:00,48.3,35.9,29.80,SW,234,1.0,2.0,62,0.00,,,0.00,Wunderground v.1.15,2013-10-01 09:40:00,
2013-10-01 02:46:00,48.1,35.7,29.80,SW,230,2.0,3.0,62,0.00,,,0.00,Wunderground v.1.15,2013-10-01 09:46:00,
2013-10-01 02:52:00,48.7,36.3,29.80,SW,227,2.0,3.0,62,0.00,,,0.00,Wunderground v.1.15,2013-10-01 09:52:00,
2013-10-01 02:57:00,48.8,35.9,29.80,SW,231,2.0,3.0,61,0.00,,,0.00,Wunderground v.1.15,2013-10-01 09:57:00,
2013-10-01 03:03:00,49.9,37.0,29.80,WSW,240,2.0,2.0,61,0.00,,,0.00,Wunderground v.1.15,2013-10-01 10:03:00,
2013-10-01 03:09:00,49.7,35.9,29.80,SW,226,1.0,3.0,59,0.00,,,0.00,Wunderground v.1.15,2013-10-01 10:09:00,
2013-10-01 03:15:00,48.4,35.6,29.80,WSW,252,2.0,3.0,61,0.00,,,0.00,Wunderground v.1.15,2013-10-01 10:15:00,
2013-10-01 03:20:00,47.7,35.3,29.80,WSW,244,2.0,2.0,62,0.00,,,0.00,Wunderground v.1.15,2013-10-01 10:20:00,
2013-10-01 03:26:00,47.2,35.6,29.80,WSW,248,1.0,2.0,64,0.00,,,0.00,Wunderground v.1.15,2013-10-01 10:26:00,
2013-10-01 03:32:00,47.2,35.6,29.80,WSW,253,1.0,1.0,64,0.00,,,0.00,Wunderground v.1.15,2013-10-01 10:32:00,
2013-10-01 03:37:00,46.9,35.7,29.80,West,274,1.0,1.0,65,0.00,,,0.00,Wunderground v.1.15,2013-10-01 10:37:00,
2013-10-01 03:42:00,46.7,35.9,29.80,West,264,1.0,2.0,66,0.00,,,0.00,Wunderground v.1.15,2013-10-01 10:42:00,
2013-10-01 03:47:00,46.1,35.4,29.80,West,262,1.0,2.0,66,0.00,,,0.00,Wunderground v.1.15,2013-10-01 10:47:00,
2013-10-01 03:53:00,46.1,36.5,29.80,WSW,238,1.0,2.0,69,0.00,,,0.00,Wunderground v.1.15,2013-10-01 10:53:00,
2013-10-01 03:59:00,46.6,36.6,29.80,WSW,238,0.0,2.0,68,0.00,,,0.00,Wunderground v.1.15,2013-10-01 10:59:00,
2013-10-01 04:04:00,47.5,37.5,29.80,WSW,243,1.0,1.0,68,0.00,,,0.00,Wunderground v.1.15,2013-10-01 11:04:00,
2013-10-01 04:09:00,48.0,37.9,29.80,WSW,244,0.0,1.0,68,0.00,,,0.00,Wunderground v.1.15,2013-10-01 11:09:00,
2013-10-01 04:14:00,48.7,38.6,29.80,WSW,255,1.0,2.0,68,0.00,,,0.00,Wunderground v.1.15,2013-10-01 11:14:00,
2013-10-01 04:19:00,49.0,38.1,29.80,WSW,255,1.0,2.0,66,0.00,,,0.00,Wunderground v.1.15,2013-10-01 11:19:00,
2013-10-01 04:25:00,49.1,38.6,29.81,WSW,250,1.0,2.0,67,0.00,,,0.00,Wunderground v.1.15,2013-10-01 11:25:00,
2013-10-01 04:31:00,48.8,37.9,29.80,WSW,249,2.0,2.0,66,0.00,,,0.00,Wunderground v.1.15,2013-10-01 11:31:00,
2013-10-01 04:37:00,48.3,37.8,29.81,WSW,254,1.0,2.0,67,0.00,,,0.00,Wunderground v.1.15,2013-10-01 11:37:00,
2013-10-01 04:43:00,47.7,37.3,29.80,West,264,2.0,3.0,67,0.00,,,0.00,Wunderground v.1.15,2013-10-01 11:43:00,
2013-10-01 04:48:00,46.9,36.9,29.80,West,260,3.0,4.0,68,0.00,,,0.00,Wunderground v.1.15,2013-10-01 11:48:00,
2013-10-01 04:54:00,46.7,37.1,29.81,West,273,3.0,4.0,69,0.00,,,0.00,Wunderground v.1.15,2013-10-01 11:54:00,
2013-10-01 04:59:00,45.7,36.5,29.80,West,271,3.0,4.0,70,0.00,,,0.00,Wunderground v.1.15,2013-10-01 11:59:00,
2013-10-01 05:05:00,45.1,36.3,29.81,West,264,2.0,2.0,71,0.00,,,0.00,Wunderground v.1.15,2013-10-01 12:05:00,
2013-10-01 05:12:00,45.2,36.7,29.81,West,260,1.0,1.0,72,0.00,,,0.00,Wunderground v.1.15,2013-10-01 12:12:00,
2013-10-01 05:18:00,44.8,36.7,29.81,West,260,1.0,1.0,73,0.00,,,0.00,Wunderground v.1.15,2013-10-01 12:18:00,
2013-10-01 05:24:00,45.5,37.0,29.81,WSW,252,1.0,2.0,72,0.00,,,0.00,Wunderground v.1.15,2013-10-01 12:24:00,
2013-10-01 05:30:00,45.3,37.5,29.81,SW,226,0.0,0.0,74,0.00,,,0.00,Wunderground v.1.15,2013-10-01 12:30:00,
2013-10-01 05:35:00,44.7,36.2,29.81,WSW,242,0.0,0.0,72,0.00,,,0.00,Wunderground v.1.15,2013-10-01 12:35:00,
2013-10-01 05:41:00,44.7,36.2,29.81,WSW,242,0.0,0.0,72,0.00,,,0.00,Wunderground v.1.15,2013-10-01 12:41:00,
2013-10-01 05:47:00,-999.9,-99.9,29.81,North,32767,-999.0,0.0,255,-99.99,,,0.00,Wunderground v.1.15,2013-10-01 12:47:00,
2013-10-01 05:53:00,-999.9,-99.9,29.81,North,32767,-999.0,0.0,255,-99.99,,,0.00,Wunderground v.1.15,2013-10-01 12:53:00,
2013-10-01 05:59:00,-999.9,-99.9,29.81,North,32767,-999.0,0.0,255,-99.99,,,0.00,Wunderground v.1.15,2013-10-01 12:59:00,
2013-10-01 06:04:00,-999.9,-99.9,29.81,North,32767,-999.0,0.0,255,-99.99,,,0.00,Wunderground v.1.15,2013-10-01 13:04:00,
2013-10-01 06:09:00,-999.9,-99.9,29.80,North,32767,-999.0,0.0,255,-99.99,,,0.00,Wunderground v.1.15,2013-10-01 13:09:00,
2013-10-01 06:15:00,-999.9,-99.9,29.80,North,32767,-999.0,0.0,255,-99.99,,,0.00,Wunderground v.1.15,2013-10-01 13:15:00,
2013-10-01 06:21:00,-999.9,-99.9,29.80,North,32767,-999.0,0.0,255,-99.99,,,0.00,Wunderground v.1.15,2013-10-01 13:21:00,
2013-10-01 06:27:00,-999.9,-99.9,29.80,North,32767,-999.0,0.0,255,-99.99,,,0.00,Wunderground v.1.15,2013-10-01 13:27:00,
2013-10-01 06:32:00,-999.9,-99.9,29.81,North,32767,-999.0,0.0,255,-99.99,,,0.00,Wunderground v.1.15,2013-10-01 13:32:00,
2013-10-01 06:38:00,-999.9,-99.9,29.81,North,32767,-999.0,0.0,255,-99.99,,,0.00,Wunderground v.1.15,2013-10-01 13:38:00,
2013-10-01 06:44:00,-999.9,-99.9,29.81,North,32767,-999.0,0.0,255,-99.99,,,0.00,Wunderground v.1.15,2013-10-01 13:44:00,
2013-10-01 06:50:00,-999.9,-99.9,29.81,North,32767,-999.0,0.0,255,-99.99,,,0.00,Wunderground v.1.15,2013-10-01 13:50:00,
2013-10-01 06:56:00,-999.9,-99.9,29.81,North,32767,-999.0,0.0,255,-99.99,,,0.00,Wunderground v.1.15,2013-10-01 13:56:00,
2013-10-01 07:02:00,-999.9,-99.9,29.81,North,32767,-999.0,0.0,255,-99.99,,,0.00,Wunderground v.1.15,2013-10-01 14:02:00,
2013-10-01 07:08:00,-999.9,-99.9,29.81,North,32767,-999.0,0.0,255,-99.99,,,0.00,Wunderground v.1.15,2013-10-01 14:08:00,
2013-10-01 07:13:00,-999.9,-99.9,29.81,North,32767,-999.0,0.0,255,-99.99,,,0.00,Wunderground v.1.15,2013-10-01 14:13:00,
2013-10-01 07:18:00,-999.9,-99.9,29.81,North,32767,-999.0,0.0,255,-99.99,,,0.00,Wunderground v.1.15,2013-10-01 14:18:00,
2013-10-01 07:24:00,45.8,37.3,29.81,West,268,3.0,4.0,72,0.00,,,0.00,Wunderground v.1.15,2013-10-01 14:24:00,
2013-10-01 07:29:00,46.3,37.4,29.81,WSW,255,2.0,4.0,71,0.00,,,0.00,Wunderground v.1.15,2013-10-01 14:29:00,
2013-10-01 07:35:00,46.4,36.8,29.82,West,259,1.0,2.0,69,0.00,,,0.00,Wunderground v.1.15,2013-10-01 14:35:00,
2013-10-01 07:40:00,46.6,37.3,29.82,WSW,248,0.0,0.0,70,0.00,,,0.00,Wunderground v.1.15,2013-10-01 14:40:00,
2013-10-01 07:45:00,47.2,37.9,29.82,SW,234,0.0,0.0,70,0.00,,,0.00,Wunderground v.1.15,2013-10-01 14:45:00,
2013-10-01 07:50:00,47.9,38.6,29.82,WSW,253,0.0,0.0,70,0.00,,,0.00,Wunderground v.1.15,2013-10-01 14:50:00,
2013-10-01 07:55:00,48.4,38.7,29.82,West,260,0.0,0.0,69,0.00,,,0.00,Wunderground v.1.15,2013-10-01 14:55:00,
2013-10-01 08:00:00,48.9,38.8,29.82,West,261,0.0,0.0,68,0.00,,,0.00,Wunderground v.1.15,2013-10-01 15:00:00,
2013-10-01 08:06:00,49.5,39.0,29.82,WSW,257,0.0,0.0,67,0.00,,,0.00,Wunderground v.1.15,2013-10-01 15:06:00,
2013-10-01 08:11:00,50.1,39.6,29.83,West,264,0.0,0.0,67,0.00,,,0.00,Wunderground v.1.15,2013-10-01 15:11:00,
2013-10-01 08:16:00,50.7,39.7,29.82,WSW,257,0.0,0.0,66,0.00,,,0.00,Wunderground v.1.15,2013-10-01 15:16:00,
2013-10-01 08:22:00,51.7,39.9,29.83,West,266,0.0,0.0,64,0.00,,,0.00,Wunderground v.1.15,2013-10-01 15:22:00,
2013-10-01 08:28:00,52.4,40.2,29.83,West,266,0.0,0.0,63,0.00,,,0.00,Wunderground v.1.15,2013-10-01 15:28:00,
2013-10-01 08:33:00,53.3,40.2,29.83,West,276,0.0,0.0,61,0.00,,,0.00,Wunderground v.1.15,2013-10-01 15:33:00,
2013-10-01 08:38:00,54.1,40.1,29.83,WNW,291,0.0,0.0,59,0.00,,,0.00,Wunderground v.1.15,2013-10-01 15:38:00,
2013-10-01 08:43:00,54.4,40.4,29.83,West,263,0.0,0.0,59,0.00,,,0.00,Wunderground v.1.15,2013-10-01 15:43:00,
2013-10-01 08:49:00,55.2,40.7,29.83,West,278,0.0,0.0,58,0.00,,,0.00,Wunderground v.1.15,2013-10-01 15:49:00,
2013-10-01 08:54:00,55.9,40.9,29.84,NW,304,0.0,0.0,57,0.00,,,0.00,Wunderground v.1.15,2013-10-01 15:54:00,
2013-10-01 09:00:00,56.6,41.1,29.84,WNW,291,0.0,0.0,56,0.00,,,0.00,Wunderground v.1.15,2013-10-01 16:00:00,
2013-10-01 09:06:00,57.2,40.7,29.84,NW,309,0.0,3.0,54,0.00,,,0.00,Wunderground v.1.15,2013-10-01 16:06:00,
2013-10-01 09:12:00,57.6,40.6,29.84,NW,319,1.0,1.0,53,0.00,,,0.00,Wunderground v.1.15,2013-10-01 16:12:00,
2013-10-01 09:17:00,57.9,40.4,29.84,West,268,1.0,3.0,52,0.00,,,0.00,Wunderground v.1.15,2013-10-01 16:17:00,
2013-10-01 09:23:00,58.5,39.9,29.84,NNW,346,2.0,4.0,50,0.00,,,0.00,Wunderground v.1.15,2013-10-01 16:23:00,
2013-10-01 09:28:00,58.8,40.2,29.85,West,265,3.0,4.0,50,0.00,,,0.00,Wunderground v.1.15,2013-10-01 16:28:00,
2013-10-01 09:32:00,59.1,39.9,29.85,NW,312,3.0,5.0,49,0.00,,,0.00,Wunderground v.1.15,2013-10-01 16:32:00,
2013-10-01 09:38:00,59.7,40.5,29.85,West,274,1.0,5.0,49,0.00,,,0.00,Wunderground v.1.15,2013-10-01 16:38:00,
2013-10-01 09:44:00,59.7,40.0,29.85,NW,314,0.0,1.0,48,0.00,,,0.00,Wunderground v.1.15,2013-10-01 16:44:00,
2013-10-01 09:49:00,60.0,40.2,29.85,WNW,301,0.0,1.0,48,0.00,,,0.00,Wunderground v.1.15,2013-10-01 16:49:00,
2013-10-01 09:54:00,60.4,40.1,29.85,NW,322,0.0,0.0,47,0.00,,,0.00,Wunderground v.1.15,2013-10-01 16:54:00,
2013-10-01 10:00:00,60.4,39.5,29.85,NW,326,0.0,0.0,46,0.00,,,0.00,Wunderground v.1.15,2013-10-01 17:00:00,
2013-10-01 10:06:00,61.0,40.1,29.85,NW,320,0.0,0.0,46,0.00,,,0.00,Wunderground v.1.15,2013-10-01 17:06:00,
2013-10-01 10:11:00,61.1,39.6,29.85,NW,305,0.0,0.0,45,0.00,,,0.00,Wunderground v.1.15,2013-10-01 17:11:00,
2013-10-01 10:17:00,61.8,40.2,29.84,NW,319,0.0,0.0,45,0.00,,,0.00,Wunderground v.1.15,2013-10-01 17:17:00,
2013-10-01 10:23:00,62.2,40.0,29.84,NNW,346,0.0,0.0,44,0.00,,,0.00,Wunderground v.1.15,2013-10-01 17:23:00,
2013-10-01 10:28:00,62.3,39.5,29.84,West,269,0.0,0.0,43,0.00,,,0.00,Wunderground v.1.15,2013-10-01 17:28:00,
2013-10-01 10:33:00,62.6,39.2,29.84,NW,304,0.0,0.0,42,0.00,,,0.00,Wunderground v.1.15,2013-10-01 17:33:00,
2013-10-01 10:39:00,63.0,38.9,29.84,WNW,287,0.0,0.0,41,0.00,,,0.00,Wunderground v.1.15,2013-10-01 17:39:00,
2013-10-01 10:44:00,63.4,39.3,29.84,NW,323,0.0,0.0,41,0.00,,,0.00,Wunderground v.1.15,2013-10-01 17:44:00,
2013-10-01 10:49:00,63.5,38.7,29.84,WSW,250,0.0,0.0,40,0.00,,,0.00,Wunderground v.1.15,2013-10-01 17:49:00,
2013-10-01 10:55:00,64.6,39.1,29.84,East,90,0.0,0.0,39,0.00,,,0.00,Wunderground v.1.15,2013-10-01 17:55:00,
2013-10-01 11:00:00,65.6,39.3,29.84,NW,324,0.0,0.0,38,0.00,,,0.00,Wunderground v.1.15,2013-10-01 18:00:00,
2013-10-01 11:06:00,65.5,38.5,29.84,WNW,300,0.0,0.0,37,0.00,,,0.00,Wunderground v.1.15,2013-10-01 18:06:00,
2013-10-01 11:11:00,65.2,38.9,29.84,NW,307,0.0,0.0,38,0.00,,,0.00,Wunderground v.1.15,2013-10-01 18:11:00,
2013-10-01 11:16:00,65.5,38.5,29.83,WSW,248,0.0,0.0,37,0.00,,,0.00,Wunderground v.1.15,2013-10-01 18:16:00,
2013-10-01 11:22:00,65.9,38.2,29.84,NNW,347,0.0,0.0,36,0.00,,,0.00,Wunderground v.1.15,2013-10-01 18:22:00,
2013-10-01 11:27:00,65.7,38.0,29.83,NW,315,0.0,0.0,36,0.00,,,0.00,Wunderground v.1.15,2013-10-01 18:27:00,
2013-10-01 11:33:00,65.9,38.2,29.83,NW,326,0.0,0.0,36,0.00,,,0.00,Wunderground v.1.15,2013-10-01 18:33:00,
2013-10-01 11:38:00,66.9,38.3,29.83,SW,214,0.0,0.0,35,0.00,,,0.00,Wunderground v.1.15,2013-10-01 18:38:00,
2013-10-01 11:44:00,66.8,37.5,29.83,NNE,21,0.0,0.0,34,0.00,,,0.00,Wunderground v.1.15,2013-10-01 18:44:00,
2013-10-01 11:49:00,66.0,37.5,29.83,SE,125,0.0,0.0,35,0.00,,,0.00,Wunderground v.1.15,2013-10-01 18:49:00,
2013-10-01 11:54:00,66.1,37.6,29.83,North,11,0.0,0.0,35,0.00,,,0.00,Wunderground v.1.15,2013-10-01 18:54:00,
2013-10-01 11:59:00,66.7,38.2,29.83,WNW,303,0.0,0.0,35,0.00,,,0.00,Wunderground v.1.15,2013-10-01 18:59:00,
2013-10-01 12:04:00,66.9,37.6,29.83,NE,49,0.0,0.0,34,0.00,,,0.00,Wunderground v.1.15,2013-10-01 19:04:00,
2013-10-01 12:10:00,66.8,37.5,29.82,NE,53,0.0,0.0,34,0.00,,,0.00,Wunderground v.1.15,2013-10-01 19:10:00,
2013-10-01 12:15:00,66.7,37.4,29.83,ENE,76,0.0,0.0,34,0.00,,,0.00,Wunderground v.1.15,2013-10-01 19:15:00,
2013-10-01 12:21:00,67.4,37.3,29.83,SSE,152,0.0,0.0,33,0.00,,,0.00,Wunderground v.1.15,2013-10-01 19:21:00,
2013-10-01 12:27:00,68.0,37.8,29.82,NNE,27,0.0,0.0,33,0.00,,,0.00,Wunderground v.1.15,2013-10-01 19:27:00,
2013-10-01 12:32:00,68.6,37.5,29.82,NW,315,0.0,0.0,32,0.00,,,0.00,Wunderground v.1.15,2013-10-01 19:32:00,
2013-10-01 12:38:00,68.2,37.2,29.82,NNE,27,0.0,0.0,32,0.00,,,0.00,Wunderground v.1.15,2013-10-01 19:38:00,
2013-10-01 12:43:00,68.0,37.0,29.82,North,3,0.0,0.0,32,0.00,,,0.00,Wunderground v.1.15,2013-10-01 19:43:00,
2013-10-01 12:49:00,68.9,37.8,29.82,WSW,241,0.0,0.0,32,0.00,,,0.00,Wunderground v.1.15,2013-10-01 19:49:00,
2013-10-01 12:55:00,69.2,37.3,29.81,NNE,18,0.0,0.0,31,0.00,,,0.00,Wunderground v.1.15,2013-10-01 19:55:00,
2013-10-01 13:00:00,69.0,37.1,29.81,WSW,255,0.0,0.0,31,0.00,,,0.00,Wunderground v.1.15,2013-10-01 20:00:00,
2013-10-01 13:06:00,69.2,37.3,29.81,SE,146,0.0,0.0,31,0.00,,,0.00,Wunderground v.1.15,2013-10-01 20:06:00,
2013-10-01 13:12:00,70.1,37.2,29.80,ESE,104,0.0,0.0,30,0.00,,,0.00,Wunderground v.1.15,2013-10-01 20:12:00,
2013-10-01 13:18:00,69.7,37.7,29.80,South,171,0.0,0.0,31,0.00,,,0.00,Wunderground v.1.15,2013-10-01 20:18:00,
2013-10-01 13:24:00,70.3,37.4,29.80,WNW,295,0.0,0.0,30,0.00,,,0.00,Wunderground v.1.15,2013-10-01 20:24:00,
2013-10-01 13:30:00,70.6,37.6,29.80,NW,311,0.0,0.0,30,0.00,,,0.00,Wunderground v.1.15,2013-10-01 20:30:00,
2013-10-01 13:36:00,70.7,36.9,29.80,NNE,13,0.0,0.0,29,0.00,,,0.00,Wunderground v.1.15,2013-10-01 20:36:00,
2013-10-01 13:41:00,70.4,36.6,29.79,NNW,334,0.0,0.0,29,0.00,,,0.00,Wunderground v.1.15,2013-10-01 20:41:00,
2013-10-01 13:47:00,70.8,37.8,29.79,NNW,335,0.0,0.0,30,0.00,,,0.00,Wunderground v.1.15,2013-10-01 20:47:00,
2013-10-01 13:52:00,71.4,37.5,29.79,NW,322,0.0,0.0,29,0.00,,,0.00,Wunderground v.1.15,2013-10-01 20:52:00,
2013-10-01 13:58:00,71.8,37.8,29.79,SW,220,0.0,0.0,29,0.00,,,0.00,Wunderground v.1.15,2013-10-01 20:58:00,
2013-10-01 14:03:00,72.2,37.3,29.79,West,281,0.0,0.0,28,0.00,,,0.00,Wunderground v.1.15,2013-10-01 21:03:00,
2013-10-01 14:09:00,71.7,37.7,29.78,NNE,18,0.0,0.0,29,0.00,,,0.00,Wunderground v.1.15,2013-10-01 21:09:00,
2013-10-01 14:15:00,71.9,37.9,29.78,WSW,256,0.0,0.0,29,0.00,,,0.00,Wunderground v.1.15,2013-10-01 21:15:00,
2013-10-01 14:21:00,72.1,36.3,29.78,WNW,293,0.0,0.0,27,0.00,,,0.00,Wunderground v.1.15,2013-10-01 21:21:00,
2013-10-01 14:26:00,71.9,37.0,29.78,North,11,0.0,0.0,28,0.00,,,0.00,Wunderground v.1.15,2013-10-01 21:26:00,
2013-10-01 14:32:00,72.2,37.3,29.78,North,3,0.0,0.0,28,0.00,,,0.00,Wunderground v.1.15,2013-10-01 21:32:00,
2013-10-01 14:38:00,72.8,37.8,29.78,WNW,300,0.0,0.0,28,0.00,,,0.00,Wunderground v.1.15,2013-10-01 21:38:00,
2013-10-01 14:44:00,72.7,36.8,29.77,SSW,206,0.0,0.0,27,0.00,,,0.00,Wunderground v.1.15,2013-10-01 21:44:00,
2013-10-01 14:50:00,73.2,37.2,29.77,NNW,347,0.0,0.0,27,0.00,,,0.00,Wunderground v.1.15,2013-10-01 21:50:00,
2013-10-01 14:55:00,73.0,36.1,29.77,NW,323,0.0,0.0,26,0.00,,,0.00,Wunderground v.1.15,2013-10-01 21:55:00,
2013-10-01 15:00:00,72.8,36.9,29.77,NNW,337,0.0,0.0,27,0.00,,,0.00,Wunderground v.1.15,2013-10-01 22:00:00,
2013-10-01 15:06:00,73.4,37.4,29.77,North,359,0.0,0.0,27,0.00,,,0.00,Wunderground v.1.15,2013-10-01 22:06:00,
2013-10-01 15:11:00,73.4,36.4,29.76,North,353,0.0,0.0,26,0.00,,,0.00,Wunderground v.1.15,2013-10-01 22:11:00,
2013-10-01 15:16:00,73.3,36.3,29.76,North,356,0.0,0.0,26,0.00,,,0.00,Wunderground v.1.15,2013-10-01 22:16:00,
2013-10-01 15:22:00,73.7,36.7,29.76,NNW,331,0.0,0.0,26,0.00,,,0.00,Wunderground v.1.15,2013-10-01 22:22:00,
2013-10-01 15:27:00,74.0,34.9,29.76,WNW,294,0.0,0.0,24,0.00,,,0.00,Wunderground v.1.15,2013-10-01 22:27:00,
2013-10-01 15:33:00,74.2,36.1,29.76,NW,323,0.0,0.0,25,0.00,,,0.00,Wunderground v.1.15,2013-10-01 22:33:00,
2013-10-01 15:39:00,74.2,32.9,29.76,North,349,0.0,0.0,22,0.00,,,0.00,Wunderground v.1.15,2013-10-01 22:39:00,
2013-10-01 15:45:00,73.8,32.6,29.76,North,356,0.0,0.0,22,0.00,,,0.00,Wunderground v.1.15,2013-10-01 22:45:00,
2013-10-01 15:51:00,74.4,33.1,29.76,North,356,0.0,0.0,22,0.00,,,0.00,Wunderground v.1.15,2013-10-01 22:51:00,
2013-10-01 15:56:00,74.5,32.0,29.76,NW,323,0.0,0.0,21,0.00,,,0.00,Wunderground v.1.15,2013-10-01 22:56:00,
2013-10-01 16:02:00,74.4,31.9,29.76,NW,315,0.0,0.0,21,0.00,,,0.00,Wunderground v.1.15,2013-10-01 23:02:00,
2013-10-01 16:08:00,75.3,31.4,29.75,NNW,336,0.0,0.0,20,0.00,,,0.00,Wunderground v.1.15,2013-10-01 23:08:00,
2013-10-01 16:14:00,74.9,31.1,29.75,WNW,302,0.0,0.0,20,0.00,,,0.00,Wunderground v.1.15,2013-10-01 23:14:00,
2013-10-01 16:20:00,74.6,30.9,29.75,NNW,338,0.0,0.0,20,0.00,,,0.00,Wunderground v.1.15,2013-10-01 23:20:00,
2013-10-01 16:24:00,75.2,31.3,29.75,NW,318,0.0,0.0,20,0.00,,,0.00,Wunderground v.1.15,2013-10-01 23:24:00,
2013-10-01 16:30:00,75.0,31.2,29.75,NNW,346,0.0,0.0,20,0.00,,,0.00,Wunderground v.1.15,2013-10-01 23:30:00,
2013-10-01 16:33:00,75.1,31.3,29.75,North,3,0.0,0.0,20,0.00,,,0.00,Wunderground v.1.15,2013-10-01 23:33:00,
2013-10-01 16:39:00,75.3,31.4,29.75,NNW,340,0.0,0.0,20,0.00,,,0.00,Wunderground v.1.15,2013-10-01 23:39:00,
2013-10-01 16:45:00,75.7,30.5,29.75,North,7,0.0,0.0,19,0.00,,,0.00,Wunderground v.1.15,2013-10-01 23:45:00,
2013-10-01 16:51:00,75.7,29.2,29.75,WNW,290,0.0,0.0,18,0.00,,,0.00,Wunderground v.1.15,2013-10-01 23:51:00,
2013-10-01 16:57:00,75.7,29.2,29.75,NW,304,0.0,0.0,18,0.00,,,0.00,Wunderground v.1.15,2013-10-01 23:57:00,
2013-10-01 17:03:00,75.9,29.3,29.75,WNW,288,0.0,0.0,18,0.00,,,0.00,Wunderground v.1.15,2013-10-02 00:03:00,
2013-10-01 17:09:00,76.2,29.6,29.75,WSW,245,0.0,0.0,18,0.00,,,0.00,Wunderground v.1.15,2013-10-02 00:09:00,
2013-10-01 17:15:00,75.9,29.3,29.75,West,266,0.0,0.0,18,0.00,,,0.00,Wunderground v.1.15,2013-10-02 00:15:00,
2013-10-01 17:20:00,76.0,29.4,29.75,West,272,0.0,0.0,18,0.00,,,0.00,Wunderground v.1.15,2013-10-02 00:20:00,
2013-10-01 17:25:00,75.7,29.2,29.75,WSW,258,0.0,0.0,18,0.00,,,0.00,Wunderground v.1.15,2013-10-02 00:25:00,
2013-10-01 17:31:00,75.6,29.1,29.76,West,280,0.0,0.0,18,0.00,,,0.00,Wunderground v.1.15,2013-10-02 00:31:00,
2013-10-01 17:37:00,75.5,29.0,29.76,WNW,293,0.0,0.0,18,0.00,,,0.00,Wunderground v.1.15,2013-10-02 00:37:00,
2013-10-01 17:43:00,75.0,29.9,29.76,NW,315,0.0,0.0,19,0.00,,,0.00,Wunderground v.1.15,2013-10-02 00:43:00,
2013-10-01 17:49:00,74.5,29.5,29.76,NW,317,0.0,0.0,19,0.00,,,0.00,Wunderground v.1.15,2013-10-02 00:49:00,
2013-10-01 17:55:00,73.5,31.1,29.76,WNW,301,0.0,0.0,21,0.00,,,0.00,Wunderground v.1.15,2013-10-02 00:55:00,
2013-10-01 18:00:00,72.8,30.6,29.76,NNW,335,0.0,0.0,21,0.00,,,0.00,Wunderground v.1.15,2013-10-02 01:00:00,
2013-10-01 18:05:00,72.4,30.2,29.76,NNW,328,0.0,0.0,21,0.00,,,0.00,Wunderground v.1.15,2013-10-02 01:05:00,
2013-10-01 18:11:00,72.0,31.0,29.76,NW,311,1.0,1.0,22,0.00,,,0.00,Wunderground v.1.15,2013-10-02 01:11:00,
2013-10-01 18:17:00,71.9,31.0,29.76,West,281,1.0,1.0,22,0.00,,,0.00,Wunderground v.1.15,2013-10-02 01:17:00,
2013-10-01 18:23:00,71.7,30.8,29.76,NW,311,0.0,0.0,22,0.00,,,0.00,Wunderground v.1.15,2013-10-02 01:23:00,
2013-10-01 18:28:00,71.3,29.3,29.76,WNW,283,0.0,0.0,21,0.00,,,0.00,Wunderground v.1.15,2013-10-02 01:28:00,
2013-10-01 18:34:00,70.7,27.6,29.77,NW,311,0.0,0.0,20,0.00,,,0.00,Wunderground v.1.15,2013-10-02 01:34:00,
2013-10-01 18:40:00,70.1,28.3,29.77,WNW,291,0.0,0.0,21,0.00,,,0.00,Wunderground v.1.15,2013-10-02 01:40:00,
2013-10-01 18:46:00,69.3,27.7,29.77,NW,312,0.0,0.0,21,0.00,,,0.00,Wunderground v.1.15,2013-10-02 01:46:00,
2013-10-01 18:52:00,68.6,28.2,29.77,NW,321,0.0,0.0,22,0.00,,,0.00,Wunderground v.1.15,2013-10-02 01:52:00,
2013-10-01 18:58:00,67.8,27.5,29.77,NW,311,0.0,0.0,22,0.00,,,0.00,Wunderground v.1.15,2013-10-02 01:58:00,
2013-10-01 19:04:00,66.9,27.9,29.78,NW,304,0.0,1.0,23,0.00,,,0.00,Wunderground v.1.15,2013-10-02 02:04:00,
2013-10-01 19:10:00,66.2,28.3,29.78,West,276,0.0,0.0,24,0.00,,,0.00,Wunderground v.1.15,2013-10-02 02:10:00,
2013-10-01 19:16:00,65.6,27.8,29.78,West,277,0.0,0.0,24,0.00,,,0.00,Wunderground v.1.15,2013-10-02 02:16:00,
2013-10-01 19:22:00,65.0,28.3,29.78,WNW,297,0.0,0.0,25,0.00,,,0.00,Wunderground v.1.15,2013-10-02 02:22:00,
2013-10-01 19:28:00,64.9,29.2,29.79,West,273,0.0,0.0,26,0.00,,,0.00,Wunderground v.1.15,2013-10-02 02:28:00,
2013-10-01 19:34:00,64.9,29.2,29.79,WNW,284,0.0,0.0,26,0.00,,,0.00,Wunderground v.1.15,2013-10-02 02:34:00,
2013-10-01 19:40:00,64.6,27.9,29.79,West,261,0.0,0.0,25,0.00,,,0.00,Wunderground v.1.15,2013-10-02 02:40:00,
2013-10-01 19:46:00,63.9,28.3,29.79,West,281,0.0,0.0,26,0.00,,,0.00,Wunderground v.1.15,2013-10-02 02:46:00,
2013-10-01 19:52:00,63.2,27.7,29.80,West,272,0.0,0.0,26,0.00,,,0.00,Wunderground v.1.15,2013-10-02 02:52:00,
2013-10-01 19:58:00,62.6,28.1,29.80,West,264,0.0,0.0,27,0.00,,,0.00,Wunderground v.1.15,2013-10-02 02:58:00,
2013-10-01 20:04:00,63.1,28.5,29.80,WNW,295,0.0,0.0,27,0.00,,,0.00,Wunderground v.1.15,2013-10-02 03:04:00,
2013-10-01 20:10:00,62.7,28.2,29.80,NW,310,0.0,0.0,27,0.00,,,0.00,Wunderground v.1.15,2013-10-02 03:10:00,
2013-10-01 20:16:00,62.1,27.7,29.81,NW,308,0.0,0.0,27,0.00,,,0.00,Wunderground v.1.15,2013-10-02 03:16:00,
2013-10-01 20:22:00,62.0,28.5,29.81,NW,308,0.0,0.0,28,0.00,,,0.00,Wunderground v.1.15,2013-10-02 03:22:00,
2013-10-01 20:28:00,61.7,28.2,29.82,NW,309,0.0,0.0,28,0.00,,,0.00,Wunderground v.1.15,2013-10-02 03:28:00,
2013-10-01 20:34:00,62.1,28.6,29.82,WNW,295,0.0,0.0,28,0.00,,,0.00,Wunderground v.1.15,2013-10-02 03:34:00,
2013-10-01 20:40:00,62.3,27.9,29.82,West,264,0.0,0.0,27,0.00,,,0.00,Wunderground v.1.15,2013-10-02 03:40:00,
2013-10-01 20:46:00,62.1,27.7,29.82,WSW,245,0.0,0.0,27,0.00,,,0.00,Wunderground v.1.15,2013-10-02 03:46:00,
2013-10-01 20:52:00,61.7,27.3,29.83,West,269,0.0,0.0,27,0.00,,,0.00,Wunderground v.1.15,2013-10-02 03:52:00,
2013-10-01 20:58:00,61.5,28.1,29.83,West,278,0.0,0.0,28,0.00,,,0.00,Wunderground v.1.15,2013-10-02 03:58:00,
2013-10-01 21:01:00,61.5,28.1,29.83,WNW,298,0.0,0.0,28,0.00,,,0.00,Wunderground v.1.15,2013-10-02 04:01:00,
2013-10-01 21:04:00,61.3,27.9,29.82,West,264,0.0,0.0,28,0.00,,,0.00,Wunderground v.1.15,2013-10-02 04:04:00,
2013-10-01 21:06:00,61.1,27.7,29.83,NNW,330,0.0,0.0,28,0.00,,,0.00,Wunderground v.1.15,2013-10-02 04:06:00,
2013-10-01 21:07:00,61.1,27.7,29.83,NNW,328,0.0,0.0,28,0.00,,,0.00,Wunderground v.1.15,2013-10-02 04:07:00,
2013-10-01 21:08:00,61.0,27.6,29.83,West,278,0.0,0.0,28,0.00,,,0.00,Wunderground v.1.15,2013-10-02 04:08:00,
2013-10-01 21:14:00,61.0,26.7,29.83,WNW,285,0.0,0.0,27,0.00,,,0.00,Wunderground v.1.15,2013-10-02 04:14:00,
2013-10-01 21:20:00,60.9,26.7,29.83,WNW,289,0.0,0.0,27,0.00,,,0.00,Wunderground v.1.15,2013-10-02 04:20:00,
2013-10-01 21:26:00,60.7,26.5,29.83,West,270,0.0,0.0,27,0.00,,,0.00,Wunderground v.1.15,2013-10-02 04:26:00,
2013-10-01 21:31:00,60.3,26.1,29.83,WNW,297,0.0,0.0,27,0.00,,,0.00,Wunderground v.1.15,2013-10-02 04:31:00,
2013-10-01 21:36:00,59.8,26.6,29.83,West,280,0.0,0.0,28,0.00,,,0.00,Wunderground v.1.15,2013-10-02 04:36:00,
2013-10-01 21:42:00,59.4,25.4,29.84,West,278,0.0,0.0,27,0.00,,,0.00,Wunderground v.1.15,2013-10-02 04:42:00,
2013-10-01 21:48:00,58.9,24.9,29.83,WNW,303,0.0,0.0,27,0.00,,,0.00,Wunderground v.1.15,2013-10-02 04:48:00,
2013-10-01 21:53:00,58.6,25.6,29.83,West,278,0.0,0.0,28,0.00,,,0.00,Wunderground v.1.15,2013-10-02 04:53:00,
2013-10-01 21:59:00,58.1,25.1,29.83,West,274,0.0,0.0,28,0.00,,,0.00,Wunderground v.1.15,2013-10-02 04:59:00,
2013-10-01 22:05:00,57.9,25.0,29.84,West,269,0.0,0.0,28,0.00,,,0.00,Wunderground v.1.15,2013-10-02 05:05:00,
2013-10-01 22:11:00,57.7,25.6,29.84,West,274,0.0,0.0,29,0.00,,,0.00,Wunderground v.1.15,2013-10-02 05:11:00,
2013-10-01 22:16:00,57.8,25.7,29.84,WNW,285,0.0,0.0,29,0.00,,,0.00,Wunderground v.1.15,2013-10-02 05:16:00,
2013-10-01 22:22:00,57.8,24.9,29.84,West,269,0.0,0.0,28,0.00,,,0.00,Wunderground v.1.15,2013-10-02 05:22:00,
2013-10-01 22:28:00,57.1,25.9,29.84,West,274,0.0,0.0,30,0.00,,,0.00,Wunderground v.1.15,2013-10-02 05:28:00,
2013-10-01 22:34:00,57.3,26.1,29.84,WNW,302,0.0,0.0,30,0.00,,,0.00,Wunderground v.1.15,2013-10-02 05:34:00,
2013-10-01 22:40:00,56.9,25.7,29.84,West,265,0.0,0.0,30,0.00,,,0.00,Wunderground v.1.15,2013-10-02 05:40:00,
2013-10-01 22:46:00,56.9,25.7,29.84,WSW,248,0.0,0.0,30,0.00,,,0.00,Wunderground v.1.15,2013-10-02 05:46:00,
2013-10-01 22:52:00,56.7,26.4,29.84,WNW,289,0.0,0.0,31,0.00,,,0.00,Wunderground v.1.15,2013-10-02 05:52:00,
2013-10-01 22:58:00,56.3,26.0,29.84,WNW,296,0.0,0.0,31,0.00,,,0.00,Wunderground v.1.15,2013-10-02 05:58:00,
2013-10-01 23:04:00,55.7,27.0,29.85,NW,309,0.0,0.0,33,0.00,,,0.00,Wunderground v.1.15,2013-10-02 06:04:00,
2013-10-01 23:10:00,55.6,26.9,29.85,WNW,300,0.0,0.0,33,0.00,,,0.00,Wunderground v.1.15,2013-10-02 06:10:00,
2013-10-01 23:15:00,55.5,27.6,29.85,NW,321,0.0,0.0,34,0.00,,,0.00,Wunderground v.1.15,2013-10-02 06:15:00,
2013-10-01 23:21:00,56.2,28.2,29.85,NW,325,0.0,0.0,34,0.00,,,0.00,Wunderground v.1.15,2013-10-02 06:21:00,
2013-10-01 23:27:00,56.7,28.6,29.86,NNW,332,0.0,0.0,34,0.00,,,0.00,Wunderground v.1.15,2013-10-02 06:27:00,
2013-10-01 23:33:00,57.2,29.1,29.85,NW,309,0.0,0.0,34,0.00,,,0.00,Wunderground v.1.15,2013-10-02 06:33:00,
2013-10-01 23:39:00,56.8,28.7,29.86,WNW,290,0.0,0.0,34,0.00,,,0.00,Wunderground v.1.15,2013-10-02 06:39:00,
2013-10-01 23:45:00,56.2,28.9,29.86,NNW,335,0.0,0.0,35,0.00,,,0.00,Wunderground v.1.15,2013-10-02 06:45:00,
2013-10-01 23:51:00,56.1,29.5,29.86,North,353,0.0,0.0,36,0.00,,,0.00,Wunderground v.1.15,2013-10-02 06:51:00,
2013-10-01 23:57:00,56.0,29.4,29.86,NW,315,0.0,0.0,36,0.00,,,0.00,Wunderground v.1.15,2013-10-02 06:57:00,